world map with RUH marked

RUH - Airport

This information may not be accurate or current and is not valid for navigation or flight planning. No warranty of fitness for any purpose is made or implied.

flag of Saudi Arabia

Donate via PayPal

Additional information is available on the NEW Great Circle Mapper

Location
City:  Riyadh, Saudi Arabia
Name:King Khaled International Airport
ICAO / IATA:OERK / RUH

Details
Type:Airport (Aerodrome, Airfield)
Use:Public/Civil
Latitude:24°57'46"N (24.962778)
Longitude:46°42'29"E (46.708056)
Elevation:2049 ft (625 m)
Runways:2
Longest:13796 × 197 ft (4205 × 60 m)

Time
Timezone:UTC+3 (DST+5)
Local Time:

Weather
METAR:OERK  180200Z 00000KT CAVOK 12/00 Q1020 NOSIG
TAF:OERK  171100Z 1712/1818 12010KT CAVOK BECMG 1717/1719 09006KT

Related Locations
Nearby:
Farthest:GMR: 12272 mi / 19749 km
Mangareva [Totegegie], Gambier Islands, PF

Find:

   beyond  
but within

Other Information
Maps:
Links:
Sources:

  


 


Great Circle Mapper   Great Circle Mapper
Great Circle Mapper FAQ   Great Circle Mapper FAQ
  Karl's Home Page
KLSē   KLSē Home
   GC on Facebook
Airlines of the World   Airlines of the World
Donate via PayPal


Copyright © 2004-2017, Karl L. Swartz. All rights reserved.
All trademarks mentioned herein belong to their respective owners.

Please see credits for attribution and copyright information.

Karl Swartz <karl@kls2.com>
  Powered by FreeBSD
Valid HTML 4.01!
Labeled with ICRA
hCard Microformat
Geo Microformat